Map

Track Data

SID SEASON NUMBER BASIN SUBBASIN NAME ISO_TIME NATURE LAT LON WMO_WIND WMO_PRES WMO_AGENCY TRACK_TYPE DIST2LAND LANDFALL IFLAG USA_AGENCY USA_ATCF_ID USA_LAT USA_LON USA_RECORD USA_STATUS USA_WIND USA_PRES USA_SSHS USA_R34_NE USA_R34_SE USA_R34_SW USA_R34_NW USA_R50_NE USA_R50_SE USA_R50_SW USA_R50_NW USA_R64_NE USA_R64_SE USA_R64_SW USA_R64_NW USA_POCI USA_ROCI USA_RMW USA_EYE TOKYO_LAT TOKYO_LON TOKYO_GRADE TOKYO_WIND TOKYO_PRES TOKYO_R50_DIR TOKYO_R50_LONG TOKYO_R50_SHORT TOKYO_R30_DIR TOKYO_R30_LONG TOKYO_R30_SHORT TOKYO_LAND CMA_LAT CMA_LON CMA_CAT CMA_WIND CMA_PRES HKO_LAT HKO_LON HKO_CAT HKO_WIND HKO_PRES NEWDELHI_LAT NEWDELHI_LON NEWDELHI_GRADE NEWDELHI_WIND NEWDELHI_PRES NEWDELHI_CI NEWDELHI_DP NEWDELHI_POCI REUNION_LAT REUNION_LON REUNION_TYPE REUNION_WIND REUNION_PRES REUNION_TNUM REUNION_CI REUNION_RMW REUNION_R34_NE REUNION_R34_SE REUNION_R34_SW REUNION_R34_NW REUNION_R50_NE REUNION_R50_SE REUNION_R50_SW REUNION_R50_NW REUNION_R64_NE REUNION_R64_SE REUNION_R64_SW REUNION_R64_NW BOM_LAT BOM_LON BOM_TYPE BOM_WIND BOM_PRES BOM_TNUM BOM_CI BOM_RMW BOM_R34_NE BOM_R34_SE BOM_R34_SW BOM_R34_NW BOM_R50_NE BOM_R50_SE BOM_R50_SW BOM_R50_NW BOM_R64_NE BOM_R64_SE BOM_R64_SW BOM_R64_NW BOM_ROCI BOM_POCI BOM_EYE BOM_POS_METHOD BOM_PRES_METHOD NADI_LAT NADI_LON NADI_CAT NADI_WIND NADI_PRES WELLINGTON_LAT WELLINGTON_LON WELLINGTON_WIND WELLINGTON_PRES DS824_LAT DS824_LON DS824_STAGE DS824_WIND DS824_PRES TD9636_LAT TD9636_LON TD9636_STAGE TD9636_WIND TD9636_PRES TD9635_LAT TD9635_LON TD9635_WIND TD9635_PRES TD9635_ROCI NEUMANN_LAT NEUMANN_LON NEUMANN_CLASS NEUMANN_WIND NEUMANN_PRES MLC_LAT MLC_LON MLC_CLASS MLC_WIND MLC_PRES USA_GUST BOM_GUST BOM_GUST_PER REUNION_GUST REUNION_GUST_PER USA_SEAHGT USA_SEARAD_NE USA_SEARAD_SE USA_SEARAD_SW USA_SEARAD_NW STORM_SPEED STORM_DIR
1919273N17149 1919 41 WP MM NOT_NAMED 1919-09-30 09:00:00 NR 16.7000 148.600 spur-merge 2110 2106 __________O___ -1 16.7000 148.600 2 57 268
1919273N17149 1919 41 WP MM NOT_NAMED 1919-09-30 10:00:00 NR 16.6609 147.615 spur-merge 2106 2094 __________P___ -1 16.6609 147.615 2 56 267
1919273N17149 1919 41 WP MM NOT_NAMED 1919-09-30 12:00:00 NR 16.5698 145.671 spur-merge 2097 1953 __________P___ -1 16.5698 145.671 2 54 267
1919273N17149 1919 41 WP MM NOT_NAMED 1919-09-30 15:00:00 NR 16.4100 142.939 spur-merge 1932 1701 __________P___ -1 16.4100 142.939 2 49 266
1919273N17149 1919 41 WP MM NOT_NAMED 1919-09-30 18:00:00 NR 16.2436 140.615 spur-merge 1688 1519 __________P___ -1 16.2436 140.615 2 39 265
1919273N17149 1919 41 WP MM NOT_NAMED 1919-09-30 21:00:00 NR 16.1000 138.900 spur-merge 1509 1478 __________O___ -1 16.1000 138.900 2 31 265
1919273N17149 1919 41 WP MM NOT_NAMED 1919-09-30 22:00:00 NR 16.0625 138.494 spur-merge 1468 1403 __________P___ -1 16.0625 138.494 2 19 264
1919273N17149 1919 41 WP MM NOT_NAMED 1919-10-01 00:00:00 NR 16.0069 137.909 spur-merge 1403 1362 __________P___ -1 16.0069 137.909 2 12 265
1919273N17149 1919 41 WP MM NOT_NAMED 1919-10-01 03:00:00 NR 15.9754 137.452 spur-merge 1362 1342 __________P___ -1 15.9754 137.452 2 6 270
1919273N17149 1919 41 WP MM NOT_NAMED 1919-10-01 06:00:00 NR 16.0068 137.269 spur-merge 1342 1324 __________P___ -1 16.0068 137.269 2 4 290
1919273N17149 1919 41 WP MM NOT_NAMED 1919-10-01 09:00:00 NR 16.1000 137.100 spur-merge 1324 1304 __________O___ -1 16.1000 137.100 2 5 291
1919273N17149 1919 41 WP MM NOT_NAMED 1919-10-01 10:00:00 NR 16.1339 136.915 spur-merge 1304 1277 __________P___ -1 16.1339 136.915 2 11 283
1919273N17149 1919 41 WP MM NOT_NAMED 1919-10-01 12:00:00 NR 16.2227 136.529 spur-merge 1267 1225 __________P___ -1 16.2227 136.529 2 12 286
1919273N17149 1919 41 WP MM NOT_NAMED 1919-10-01 15:00:00 NR 16.4033 135.928 spur-merge 1215 1174 __________P___ -1 16.4033 135.928 2 12 290
1919273N17149 1919 41 WP MM NOT_NAMED 1919-10-01 18:00:00 NR 16.6322 135.338 spur-merge 1164 1130 __________P___ -1 16.6322 135.338 2 12 295
1919273N17149 1919 41 WP MM NOT_NAMED 1919-10-01 21:00:00 NR 16.9000 134.800 spur-merge 1130 1121 __________O___ -1 16.9000 134.800 2 11 298
1919273N17149 1919 41 WP MM NOT_NAMED 1919-10-01 22:00:00 NR 16.9852 134.641 spur-merge 1116 1103 __________P___ -1 16.9852 134.641 2 10 302
1919273N17149 1919 41 WP MM NOT_NAMED 1919-10-02 00:00:00 NR 17.1682 134.343 spur-merge 1099 1083 __________P___ -1 17.1682 134.343 2 10 306
1919273N17149 1919 41 WP MM NOT_NAMED 1919-10-02 03:00:00 NR 17.4744 133.945 spur-merge 1080 1072 __________P___ -1 17.4744 133.945 2 10 312
1919273N17149 1919 41 WP MM NOT_NAMED 1919-10-02 06:00:00 NR 17.8184 133.599 spur-merge 1072 1061 __________P___ -1 17.8184 133.599 2 10 320
1919273N17149 1919 41 WP MM NOT_NAMED 1919-10-02 09:00:00 NR 18.2000 133.300 spur-merge 1065 1061 __________O___ -1 18.2000 133.300 2 10 324
1919273N17149 1919 41 WP MM NOT_NAMED 1919-10-02 10:00:00 NR 18.3393 133.199 spur-merge 1061 1056 __________P___ -1 18.3393 133.199 2 10 328
1919273N17149 1919 41 WP MM NOT_NAMED 1919-10-02 12:00:00 NR 18.6341 133.012 spur-merge 1058 1056 __________P___ -1 18.6341 133.012 2 10 332
1919273N17149 1919 41 WP MM NOT_NAMED 1919-10-02 15:00:00 NR 19.0997 132.768 spur-merge 1067 1064 __________P___ -1 19.0997 132.768 2 10 336
1919273N17149 1919 41 WP MM NOT_NAMED 1919-10-02 18:00:00 NR 19.5655 132.565 spur-merge 1081 1072 __________P___ -1 19.5655 132.565 2 10 339
1919273N17149 1919 41 WP MM NOT_NAMED 1919-10-02 21:00:00 NR 20.0000 132.400 spur-merge 1075 1075 __________O___ -1 20.0000 132.400 2 9 340
1919273N17149 1919 41 WP MM NOT_NAMED 1919-10-02 22:00:00 NR 20.1226 132.348 spur-merge 1066 1066 __________P___ -1 20.1328 132.353 2 8 340
1919273N17149 1919 41 WP MM NOT_NAMED 1919-10-03 00:00:00 NR 20.3526 132.259 spur-merge 1072 1061 __________P___ -1 20.3797 132.269 2 7 342
1919273N17149 1919 41 WP MM NOT_NAMED 1919-10-03 03:00:00 NR 20.6723 132.154 spur-merge 1068 1058 __________P___ -1 20.7125 132.165 2 7 344
1919273N17149 1919 41 WP MM NOT_NAMED 1919-10-03 06:00:00 NR 20.9808 132.072 spur-merge 1066 1058 __________P___ -1 21.0141 132.078 2 6 347
1919273N17149 1919 41 WP MM NOT_NAMED 1919-10-03 09:00:00 NR 21.3000 132.000 spur-merge 1064 1064 __________O___ -1 21.3000 132.000 2 7 348
1919273N17149 1919 41 WP MM NOT_NAMED 1919-10-03 10:00:00 NR 21.4220 131.969 spur-merge 1067 1045 ______________ -1 2 8 346
1919273N17149 1919 41 WP MM NOT_NAMED 1919-10-03 12:00:00 NR 21.6728 131.910 spur-merge 1045 1011 ______________ -1 2 8 348
1919273N17149 1919 41 WP MM NOT_NAMED 1919-10-03 15:00:00 NR 22.0575 131.828 spur-merge 1000 ______________ -1 2 8 348

Digital Typhoon Data and Search

About IBTrACS Database

This database is a web-friendly format of International Best Track Archive for Climate Stewardship (IBTrACS), a global best track data archive curated by NOAA dating back to 1842.

Updated: 2021-10-25